Time;durP1;ratioP1;P1;durP2;ratioP2;P2;SDS_P1;SDS_P2;PMS_P1;PMS_P2;Temp;Humidity;BMP_temperature;BMP_pressure;BME280_temperature;BME280_humidity;BME280_pressure;Samples;Min_cycle;Max_cycle;Signal;HPM_P1;HPM_P2
2022/02/25 00:01:36;;;;;;;14.65;5.78;;;;;;;7.25;47.12;100063.44;4458548;31;34393;-82
2022/02/25 00:04:04;;;;;;;14.55;5.85;;;;;;;7.16;47.46;100070.63;4463984;32;32651;-81
2022/02/25 00:06:31;;;;;;;15.07;6.20;;;;;;;7.32;47.09;100059.75;4457964;32;34599;-81
2022/02/25 00:08:59;;;;;;;13.38;5.80;;;;;;;7.19;47.35;100061.84;4458272;32;35344;-81
2022/02/25 00:11:27;;;;;;;10.48;4.30;;;;;;;7.06;47.55;100057.78;4470890;32;34535;-81
2022/02/25 00:13:55;;;;;;;11.68;5.65;;;;;;;6.80;48.33;100066.31;4458091;32;33045;-82
2022/02/25 00:16:22;;;;;;;13.23;5.37;;;;;;;6.97;48.10;100060.63;4458380;32;33354;-82
2022/02/25 00:18:50;;;;;;;13.52;5.87;;;;;;;6.81;48.43;100062.78;4471116;32;33621;-82
2022/02/25 00:21:18;;;;;;;17.85;6.18;;;;;;;6.63;49.37;100064.94;4453436;32;32951;-82
2022/02/25 00:23:46;;;;;;;10.90;5.53;;;;;;;7.14;47.66;100061.09;4471634;32;33465;-82
2022/02/25 00:26:13;;;;;;;17.17;6.03;;;;;;;7.12;47.81;100062.88;4470397;32;33507;-82
2022/02/25 00:28:41;;;;;;;12.20;5.65;;;;;;;6.90;48.11;100050.31;4452992;31;33102;-81
2022/02/25 00:31:09;;;;;;;11.07;4.78;;;;;;;6.90;48.60;100058.19;4466128;31;33430;-81
2022/02/25 00:33:37;;;;;;;10.25;4.50;;;;;;;6.87;48.82;100060.00;4459206;31;33219;-81
2022/02/25 00:36:04;;;;;;;10.88;4.72;;;;;;;6.92;48.62;100045.00;4470739;32;33678;-81
2022/02/25 00:38:32;;;;;;;19.05;6.70;;;;;;;6.99;48.58;100056.22;4470340;32;35325;-80
2022/02/25 00:41:00;;;;;;;12.98;6.53;;;;;;;6.85;48.83;100053.94;4451299;31;32740;-80
2022/02/25 00:43:27;;;;;;;14.27;5.87;;;;;;;6.97;48.46;100063.25;4448970;32;32277;-81
2022/02/25 00:45:55;;;;;;;14.27;5.28;;;;;;;7.05;48.34;100059.56;4454597;32;33591;-81
2022/02/25 00:48:23;;;;;;;14.00;5.85;;;;;;;6.90;48.63;100050.31;4471304;32;33847;-81
2022/02/25 00:50:50;;;;;;;12.20;5.90;;;;;;;6.91;48.58;100057.28;4463061;32;32563;-81
2022/02/25 00:53:18;;;;;;;14.70;6.30;;;;;;;6.75;49.12;100055.94;4470437;32;34012;-82
2022/02/25 00:55:46;;;;;;;12.88;4.93;;;;;;;6.93;48.96;100037.13;4464865;31;32187;-81
2022/02/25 00:58:13;;;;;;;11.10;5.55;;;;;;;6.96;48.55;100030.91;4456580;32;33978;-81
2022/02/25 01:00:41;;;;;;;13.90;6.07;;;;;;;6.78;49.06;100032.22;4472167;32;35605;-81
2022/02/25 01:03:09;;;;;;;14.80;5.53;;;;;;;6.86;48.75;100039.91;4458026;32;33923;-81
2022/02/25 01:05:37;;;;;;;11.43;5.60;;;;;;;6.87;48.80;100053.00;4470793;32;33956;-81
2022/02/25 01:08:06;;;;;;;12.45;5.60;;;;;;;6.83;48.96;100059.22;4469617;32;33403;-81
2022/02/25 01:10:36;;;;;;;12.60;5.78;;;;;;;6.85;48.80;100054.81;4470426;32;33816;-82
2022/02/25 01:13:04;;;;;;;15.48;6.45;;;;;;;7.23;47.78;100047.72;4470966;32;34119;-82
2022/02/25 01:15:32;;;;;;;14.25;5.20;;;;;;;6.79;49.02;100043.56;4464066;31;32439;-83
2022/02/25 01:17:58;;;;;;;11.05;4.68;;;;;;;6.86;48.78;100043.41;4452901;32;33657;-83
2022/02/25 01:20:26;;;;;;;8.30;4.72;;;;;;;7.05;48.14;100048.19;4457584;32;34144;-83
2022/02/25 01:22:53;;;;;;;10.90;4.97;;;;;;;6.88;48.75;100041.63;4484511;32;32966;-83
2022/02/25 01:25:22;;;;;;;9.43;5.05;;;;;;;7.01;48.41;100050.03;4470195;32;34520;-82
2022/02/25 01:27:49;;;;;;;11.12;4.68;;;;;;;6.95;48.65;100046.69;4466429;32;33770;-83
2022/02/25 01:30:17;;;;;;;11.77;4.95;;;;;;;6.96;48.50;100053.66;4462394;32;33832;-82
2022/02/25 01:32:45;;;;;;;12.85;5.50;;;;;;;6.65;49.16;100052.66;4457007;32;33735;-82
2022/02/25 01:35:12;;;;;;;15.52;5.72;;;;;;;6.75;48.76;100048.06;4469002;31;33060;-82
2022/02/25 01:37:44;;;;;;;17.48;6.70;;;;;;;6.83;48.51;100048.72;4459623;32;32023;-82
2022/02/25 01:40:12;;;;;;;12.43;5.75;;;;;;;6.46;49.57;100040.00;4469905;32;34041;-83
2022/02/25 01:42:51;;;;;;;15.32;6.85;;;;;;;6.15;50.52;100045.94;4457612;32;34321;-82
2022/02/25 01:45:20;;;;;;;14.48;6.10;;;;;;;6.18;50.50;100045.88;4470644;32;33531;-83
2022/02/25 01:47:48;;;;;;;16.60;6.18;;;;;;;6.37;49.98;100041.09;4469757;32;34548;-83
2022/02/25 01:50:16;;;;;;;6.70;4.30;;;;;;;6.50;49.78;100039.03;4457262;32;33892;-83
2022/02/25 01:53:00;;;;;;;9.23;4.53;;;;;;;6.45;49.66;100033.87;4463234;32;32734;-83
2022/02/25 01:55:30;;;;;;;8.57;4.47;;;;;;;6.45;49.55;100020.75;4471409;32;34196;-82
2022/02/25 01:57:58;;;;;;;14.00;4.97;;;;;;;6.36;49.54;100029.72;4469517;32;33692;-81
2022/02/25 02:00:27;;;;;;;12.00;4.87;;;;;;;6.23;50.08;100022.19;4456048;32;32969;-82
2022/02/25 02:02:55;;;;;;;14.20;5.47;;;;;;;6.05;50.85;100012.94;4469433;32;33483;-82
2022/02/25 02:05:23;;;;;;;11.40;5.55;;;;;;;5.99;50.96;100013.09;4456382;32;33408;-82
2022/02/25 02:07:51;;;;;;;11.93;4.62;;;;;;;6.01;51.02;100000.81;4448546;32;33029;-81
2022/02/25 02:10:19;;;;;;;13.95;4.53;;;;;;;5.77;51.85;100003.03;4474424;32;33887;-82
2022/02/25 02:12:47;;;;;;;12.80;4.25;;;;;;;5.90;51.65;99999.25;4464057;31;33920;-82
2022/02/25 02:15:15;;;;;;;10.20;4.20;;;;;;;6.13;51.04;99997.94;4461618;32;33469;-80
2022/02/25 02:17:43;;;;;;;12.60;4.72;;;;;;;6.08;51.32;99999.78;4458500;32;33432;-82
2022/02/25 02:20:11;;;;;;;12.43;4.68;;;;;;;6.04;51.45;100006.84;4469478;31;33853;-83
2022/02/25 02:22:38;;;;;;;8.13;3.75;;;;;;;5.57;52.69;100016.53;4457476;32;33151;-82
2022/02/25 02:25:07;;;;;;;13.32;5.60;;;;;;;5.81;51.98;100023.03;4469394;32;33446;-80
2022/02/25 02:30:21;;;;;;;6.97;3.90;;;;;;;5.79;52.08;100000.34;4485532;32;33666;-80
2022/02/25 02:32:49;;;;;;;11.35;4.18;;;;;;;5.72;52.46;99999.63;4462706;32;32654;-80
2022/02/25 02:35:17;;;;;;;8.80;3.90;;;;;;;5.88;52.02;100001.03;4465333;31;34514;-81
2022/02/25 02:37:44;;;;;;;12.30;4.10;;;;;;;5.92;51.89;99996.62;4471564;32;33917;-80
2022/02/25 02:40:12;;;;;;;9.38;4.95;;;;;;;6.10;51.34;99997.97;4472389;32;33404;-82
2022/02/25 02:42:39;;;;;;;9.73;4.65;;;;;;;6.12;51.03;99991.81;4458231;32;32592;-85
2022/02/25 02:45:09;;;;;;;7.70;4.30;;;;;;;5.94;51.27;100004.47;4471681;32;34430;-82
2022/02/25 02:47:37;;;;;;;11.93;4.50;;;;;;;5.70;51.83;100006.69;4472593;31;32652;-82
2022/02/25 02:50:05;;;;;;;6.93;3.85;;;;;;;5.87;51.35;100004.53;4452375;31;32742;-82
2022/02/25 02:52:32;;;;;;;8.18;4.18;;;;;;;5.93;51.10;100005.34;4467348;32;33305;-82
2022/02/25 02:55:00;;;;;;;12.48;3.95;;;;;;;6.07;50.54;100004.13;4458680;31;34093;-82
2022/02/25 02:57:28;;;;;;;9.85;3.75;;;;;;;6.09;50.30;100004.13;4454142;31;32427;-82
2022/02/25 02:59:55;;;;;;;8.07;4.03;;;;;;;5.53;51.78;100006.16;4473804;32;32728;-82
2022/02/25 03:02:24;;;;;;;8.45;3.83;;;;;;;5.60;51.90;99999.88;4453985;31;32570;-82
2022/02/25 03:04:52;;;;;;;12.80;5.03;;;;;;;5.79;51.20;99990.75;4458441;32;32972;-81
2022/02/25 03:07:20;;;;;;;6.87;3.85;;;;;;;5.82;51.00;99995.91;4470926;32;34692;-81
2022/02/25 03:09:47;;;;;;;10.07;3.40;;;;;;;5.88;50.93;99995.78;4460257;32;33676;-82
2022/02/25 03:12:15;;;;;;;7.40;3.42;;;;;;;5.88;50.79;99989.69;4471577;32;33628;-83
2022/02/25 03:14:43;;;;;;;11.35;4.07;;;;;;;5.77;50.86;99984.69;4453482;31;33458;-83
2022/02/25 03:17:14;;;;;;;8.32;3.85;;;;;;;5.71;51.04;99991.81;4466500;32;33981;-83
2022/02/25 03:19:45;;;;;;;7.93;3.78;;;;;;;5.55;51.44;100006.97;4462716;32;32748;-82
2022/02/25 03:22:13;;;;;;;10.55;3.65;;;;;;;5.30;52.32;100007.44;4464742;32;32442;-83
2022/02/25 03:24:56;;;;;;;7.87;3.67;;;;;;;5.47;51.80;100006.28;4463647;31;33385;-83
2022/02/25 03:27:25;;;;;;;10.57;4.05;;;;;;;5.54;51.48;99995.63;4472909;32;34049;-83
2022/02/25 03:29:52;;;;;;;8.32;4.00;;;;;;;5.52;51.66;99988.72;4458478;32;33589;-83
2022/02/25 03:32:21;;;;;;;10.85;4.25;;;;;;;5.46;51.85;99991.44;4458909;32;33346;-81
2022/02/25 03:34:49;;;;;;;11.30;4.20;;;;;;;5.36;52.16;100009.06;4471573;32;34571;-83
2022/02/25 03:37:20;;;;;;;8.77;3.70;;;;;;;5.46;52.03;99999.28;4462267;31;32706;-82
2022/02/25 03:39:48;;;;;;;9.45;3.85;;;;;;;5.56;51.58;99998.22;4472499;32;34167;-80
2022/02/25 03:42:18;;;;;;;11.65;4.03;;;;;;;5.13;52.56;99993.81;4463176;32;32250;-83
2022/02/25 03:44:46;;;;;;;10.15;4.00;;;;;;;5.22;52.44;99988.41;4457850;32;33005;-83
2022/02/25 03:47:15;;;;;;;8.65;3.65;;;;;;;5.29;52.28;99994.37;4457665;32;32694;-83
2022/02/25 03:49:43;;;;;;;8.95;4.32;;;;;;;5.05;52.87;99995.72;4471382;32;33882;-83
2022/02/25 03:52:10;;;;;;;6.97;3.87;;;;;;;4.94;53.13;100002.87;4470785;32;33037;-83
2022/02/25 03:54:38;;;;;;;9.43;3.97;;;;;;;5.14;52.66;100000.78;4462974;32;32732;-84
2022/02/25 03:57:06;;;;;;;8.73;3.55;;;;;;;5.04;52.76;99997.47;4470183;32;33720;-83
2022/02/25 03:59:33;;;;;;;7.18;3.65;;;;;;;4.88;53.36;100004.69;4465100;32;33200;-83
2022/02/25 04:02:01;;;;;;;6.25;3.45;;;;;;;5.15;52.44;100007.72;4470692;32;33415;-84
2022/02/25 04:04:29;;;;;;;7.90;3.47;;;;;;;5.13;52.44;100004.28;4471542;32;33605;-83
2022/02/25 04:06:57;;;;;;;9.55;4.25;;;;;;;5.31;52.01;99990.84;4457614;32;33255;-82
2022/02/25 04:09:25;;;;;;;7.20;3.97;;;;;;;5.31;51.96;100003.94;4454146;31;33879;-82
2022/02/25 04:11:54;;;;;;;10.32;4.22;;;;;;;5.23;51.97;100005.84;4458440;32;32698;-83
2022/02/25 04:14:22;;;;;;;5.90;3.50;;;;;;;4.90;53.07;100015.16;4457401;32;32793;-83
2022/02/25 04:16:51;;;;;;;11.20;4.07;;;;;;;4.91;53.12;100016.03;4459443;32;34404;-83
2022/02/25 04:19:20;;;;;;;6.70;3.95;;;;;;;4.75;53.55;100026.75;4445100;32;33060;-83
2022/02/25 04:21:48;;;;;;;9.07;4.22;;;;;;;4.81;53.31;100013.56;4457380;32;32496;-82
2022/02/25 04:24:16;;;;;;;11.43;4.47;;;;;;;4.95;53.35;100015.09;4452648;31;33052;-82
2022/02/25 04:26:44;;;;;;;7.07;3.87;;;;;;;5.03;52.81;100028.88;4462782;32;34291;-85
2022/02/25 04:29:13;;;;;;;10.65;3.80;;;;;;;5.01;52.94;100022.81;4457132;32;33117;-85
2022/02/25 04:31:40;;;;;;;10.35;3.53;;;;;;;5.07;52.73;100009.63;4471464;32;32956;-84
2022/02/25 04:34:08;;;;;;;7.65;3.95;;;;;;;4.91;52.94;100000.31;4462820;31;33296;-84
2022/02/25 04:36:37;;;;;;;7.45;3.37;;;;;;;4.93;52.81;100006.37;4457446;32;34129;-85
2022/02/25 04:39:07;;;;;;;6.72;3.58;;;;;;;4.97;52.68;99992.34;4472628;32;33465;-85
2022/02/25 04:41:37;;;;;;;12.30;4.47;;;;;;;4.91;52.68;99993.34;4458227;31;32506;-85
2022/02/25 04:44:06;;;;;;;6.82;4.07;;;;;;;4.78;53.27;99994.44;4458691;31;33061;-85
2022/02/25 04:46:34;;;;;;;6.72;3.75;;;;;;;4.80;53.11;99992.66;4450224;32;33225;-85
2022/02/25 04:49:02;;;;;;;12.00;4.22;;;;;;;4.91;52.55;99989.84;4469376;32;34602;-85
2022/02/25 04:51:30;;;;;;;10.32;3.75;;;;;;;4.81;52.58;99989.16;4457236;32;33673;-85
2022/02/25 04:53:58;;;;;;;12.35;4.35;;;;;;;4.69;52.70;99998.06;4457247;32;32815;-85
2022/02/25 04:56:26;;;;;;;6.45;3.42;;;;;;;4.12;54.06;100012.00;4465597;32;33577;-85
2022/02/25 04:58:54;;;;;;;10.02;4.00;;;;;;;4.26;53.89;100003.97;4465725;31;32983;-85
2022/02/25 05:01:22;;;;;;;8.68;4.20;;;;;;;4.46;53.22;99997.56;4471213;31;33698;-85
2022/02/25 05:03:51;;;;;;;7.00;3.50;;;;;;;4.56;52.78;99992.19;4464746;31;32623;-86
2022/02/25 05:06:19;;;;;;;19.58;7.68;;;;;;;4.45;53.07;99983.63;4470553;31;33990;-86
2022/02/25 05:08:48;;;;;;;23.33;11.50;;;;;;;4.45;53.06;99983.63;4456363;31;32662;-84
2022/02/25 05:11:17;;;;;;;16.58;9.07;;;;;;;4.51;52.82;99987.91;4464531;31;34625;-84
2022/02/25 05:13:44;;;;;;;9.65;6.47;;;;;;;4.35;53.24;99989.91;4456745;32;33782;-84
2022/02/25 05:21:45;;;;;;;32.38;15.80;;;;;;;4.32;53.37;99982.09;4484917;31;33443;-84
2022/02/25 05:24:15;;;;;;;23.20;11.65;;;;;;;3.97;54.21;99993.06;4469695;32;33744;-84
2022/02/25 05:26:43;;;;;;;19.52;8.18;;;;;;;4.13;53.66;99989.38;4457222;32;33198;-84
2022/02/25 05:29:10;;;;;;;12.88;7.22;;;;;;;4.41;52.96;99992.41;4459330;31;34370;-84
2022/02/25 05:31:38;;;;;;;12.35;5.55;;;;;;;4.44;52.61;99996.75;4470534;31;34067;-84
2022/02/25 05:34:06;;;;;;;6.95;4.28;;;;;;;4.32;52.71;100000.37;4463634;32;32496;-84
2022/02/25 05:36:34;;;;;;;11.10;4.18;;;;;;;4.19;53.35;100009.31;4459160;32;33087;-84
2022/02/25 05:39:03;;;;;;;11.05;4.10;;;;;;;4.00;54.08;100032.22;4458432;31;34179;-84
2022/02/25 05:41:31;;;;;;;8.35;4.37;;;;;;;3.96;54.44;100039.22;4445750;31;33936;-84
2022/02/25 05:44:00;;;;;;;13.23;3.87;;;;;;;4.14;53.77;100043.34;4450328;32;33295;-84
2022/02/25 05:46:28;;;;;;;10.02;4.20;;;;;;;4.26;53.43;100030.09;4460633;32;32845;-84
2022/02/25 05:48:55;;;;;;;9.05;4.62;;;;;;;4.32;53.30;100032.66;4471597;32;35249;-83
2022/02/25 05:51:23;;;;;;;9.55;4.85;;;;;;;4.34;53.38;100032.63;4456647;32;33000;-84
2022/02/25 05:53:53;;;;;;;7.07;4.82;;;;;;;4.02;54.25;100036.53;4460927;32;33171;-85
2022/02/25 05:56:21;;;;;;;13.23;4.30;;;;;;;4.19;53.77;100038.94;4456326;31;33017;-84
2022/02/25 05:58:49;;;;;;;9.02;4.20;;;;;;;3.99;54.34;100052.28;4462694;32;33396;-84
2022/02/25 06:01:17;;;;;;;15.70;5.03;;;;;;;4.11;54.15;100064.28;4463873;32;33007;-84
2022/02/25 06:03:45;;;;;;;14.68;4.28;;;;;;;4.32;53.58;100066.63;4464276;31;32416;-84
2022/02/25 06:06:13;;;;;;;11.98;5.68;;;;;;;4.48;53.21;100067.25;4458353;32;33924;-84
2022/02/25 06:08:40;;;;;;;12.82;6.70;;;;;;;4.38;53.37;100068.28;4471365;32;33553;-84
2022/02/25 06:11:08;;;;;;;9.18;5.35;;;;;;;4.30;53.76;100080.59;4472138;32;32631;-84
2022/02/25 06:13:36;;;;;;;16.83;6.30;;;;;;;4.32;53.94;100086.66;4473582;31;33888;-84
2022/02/25 06:16:04;;;;;;;16.58;6.57;;;;;;;4.25;54.26;100091.13;4468940;32;33624;-84
2022/02/25 06:18:34;;;;;;;15.25;5.25;;;;;;;4.16;54.61;100096.47;4472850;32;33643;-84
2022/02/25 06:21:02;;;;;;;11.52;5.45;;;;;;;4.19;54.96;100085.13;4445535;32;32704;-85
2022/02/25 06:23:29;;;;;;;16.65;6.60;;;;;;;4.21;55.19;100081.56;4451739;32;33150;-84
2022/02/25 06:25:58;;;;;;;15.32;7.10;;;;;;;4.34;54.56;100084.91;4470925;31;33108;-84
2022/02/25 06:28:25;;;;;;;15.18;6.93;;;;;;;4.38;54.63;100076.12;4473000;31;33754;-84
2022/02/25 06:30:55;;;;;;;16.40;7.28;;;;;;;4.55;54.24;100065.41;4459075;32;33680;-81
2022/02/25 06:33:23;;;;;;;15.18;7.37;;;;;;;4.33;54.66;100073.59;4465076;31;32734;-83
2022/02/25 06:35:50;;;;;;;13.73;6.15;;;;;;;4.29;55.28;100105.88;4459143;32;34106;-83
2022/02/25 06:38:18;;;;;;;13.75;6.25;;;;;;;4.49;54.87;100094.28;4465972;32;34260;-83
2022/02/25 06:40:46;;;;;;;11.68;5.50;;;;;;;4.63;54.37;100103.66;4451109;32;32530;-83
2022/02/25 06:43:13;;;;;;;13.73;5.95;;;;;;;4.88;53.80;100093.66;4485691;32;34295;-83
2022/02/25 06:45:42;;;;;;;20.30;7.43;;;;;;;4.66;54.31;100091.44;4472239;32;32909;-83
2022/02/25 06:48:10;;;;;;;22.00;8.80;;;;;;;4.70;54.22;100093.97;4457833;31;32521;-83
2022/02/25 06:50:38;;;;;;;26.70;11.05;;;;;;;4.57;55.13;100119.44;4465302;32;34854;-82
2022/02/25 06:53:06;;;;;;;29.02;10.77;;;;;;;4.86;54.35;100126.84;4467740;32;34269;-83
2022/02/25 06:55:33;;;;;;;21.37;9.15;;;;;;;4.97;54.14;100138.91;4458887;32;33642;-83
2022/02/25 06:58:04;;;;;;;22.25;9.15;;;;;;;5.15;53.78;100143.84;4449284;32;32648;-82
2022/02/25 07:00:37;;;;;;;12.45;6.87;;;;;;;5.38;53.19;100151.34;4451768;32;32632;-85
2022/02/25 07:03:06;;;;;;;16.48;5.75;;;;;;;5.27;53.09;100158.47;4453294;32;32778;-85
2022/02/25 07:05:34;;;;;;;8.77;5.50;;;;;;;5.31;52.98;100173.25;4456162;32;33481;-85
2022/02/25 07:08:02;;;;;;;9.18;4.32;;;;;;;5.65;52.04;100170.94;4456621;32;34027;-85
2022/02/25 07:10:31;;;;;;;12.30;4.95;;;;;;;5.88;51.27;100166.13;4449527;32;33478;-85
2022/02/25 07:13:00;;;;;;;11.65;4.97;;;;;;;5.87;51.25;100177.50;4457138;32;32957;-83
2022/02/25 07:15:28;;;;;;;9.20;5.40;;;;;;;6.18;50.84;100182.22;4472813;32;33533;-83
2022/02/25 07:17:56;;;;;;;11.85;4.32;;;;;;;5.78;52.07;100201.25;4458627;32;33111;-83
2022/02/25 07:20:24;;;;;;;6.57;4.00;;;;;;;6.21;50.77;100207.50;4461031;32;33120;-85
2022/02/25 07:22:53;;;;;;;14.02;4.70;;;;;;;6.38;49.88;100203.66;4467200;31;33718;-85
2022/02/25 07:25:21;;;;;;;7.75;4.22;;;;;;;6.13;50.54;100205.03;4458664;32;33760;-85
2022/02/25 07:27:49;;;;;;;11.88;4.82;;;;;;;6.55;50.59;100213.81;4458226;32;34456;-85
2022/02/25 07:30:20;;;;;;;11.55;5.37;;;;;;;6.80;50.66;100198.41;4458904;32;32514;-85
2022/02/25 07:33:41;;;;;;;14.02;5.43;;;;;;;6.90;49.87;100204.31;4469552;32;33636;-85
2022/02/25 07:36:09;;;;;;;8.95;4.72;;;;;;;6.99;49.94;100204.13;4458418;32;33510;-85
2022/02/25 07:38:37;;;;;;;12.82;5.18;;;;;;;7.00;49.75;100204.97;4460418;32;33653;-83
2022/02/25 07:41:04;;;;;;;14.55;5.43;;;;;;;7.06;49.04;100205.69;4455360;32;32697;-83
2022/02/25 07:43:32;;;;;;;6.75;4.05;;;;;;;7.24;48.79;100193.03;4471570;32;34547;-85
2022/02/25 07:46:00;;;;;;;12.75;4.72;;;;;;;6.86;49.75;100200.03;4464785;32;33437;-83
2022/02/25 07:48:28;;;;;;;9.52;4.75;;;;;;;7.35;48.38;100194.50;4451736;32;32845;-83
2022/02/25 07:50:55;;;;;;;13.02;4.78;;;;;;;7.08;49.28;100198.66;4445728;32;32257;-85
2022/02/25 07:53:25;;;;;;;8.93;4.70;;;;;;;7.52;47.25;100185.34;4451946;32;34052;-83
2022/02/25 07:55:54;;;;;;;10.65;4.37;;;;;;;7.94;45.85;100188.63;4468127;31;33115;-84
2022/02/25 07:58:21;;;;;;;14.98;4.82;;;;;;;7.53;47.37;100177.41;4451603;32;32733;-83
2022/02/25 08:00:49;;;;;;;7.37;4.85;;;;;;;7.41;48.49;100186.47;4457717;32;34053;-84
2022/02/25 08:03:17;;;;;;;9.20;4.53;;;;;;;7.61;48.19;100185.13;4458294;32;32809;-83
2022/02/25 08:05:45;;;;;;;9.75;4.45;;;;;;;7.72;47.98;100190.94;4461328;32;34669;-83
2022/02/25 08:08:13;;;;;;;12.20;5.10;;;;;;;7.92;47.77;100193.91;4448720;32;32805;-83
2022/02/25 08:10:41;;;;;;;11.38;5.03;;;;;;;8.07;46.53;100190.03;4460078;32;33503;-83
2022/02/25 08:13:08;;;;;;;14.52;5.35;;;;;;;8.03;46.49;100190.16;4472120;32;33554;-83
2022/02/25 08:15:36;;;;;;;16.98;4.57;;;;;;;8.14;46.39;100193.34;4457942;32;32345;-83
2022/02/25 08:18:06;;;;;;;11.68;4.82;;;;;;;7.87;47.22;100195.81;4466916;31;34361;-84
2022/02/25 08:20:35;;;;;;;10.23;4.75;;;;;;;7.88;47.56;100201.91;4470906;32;33122;-83
2022/02/25 08:23:04;;;;;;;10.73;5.43;;;;;;;8.28;46.60;100199.09;4471399;31;33938;-83
2022/02/25 08:25:36;;;;;;;12.75;5.80;;;;;;;8.49;46.12;100189.75;4472793;32;34879;-82
2022/02/25 08:28:06;;;;;;;11.45;5.72;;;;;;;8.81;45.63;100191.44;4473083;32;33982;-82
2022/02/25 08:30:35;;;;;;;12.57;5.45;;;;;;;8.81;45.54;100204.59;4471334;32;34621;-82
2022/02/25 08:33:03;;;;;;;9.48;4.65;;;;;;;8.73;45.85;100206.59;4471775;32;33942;-82
2022/02/25 08:35:33;;;;;;;14.73;6.20;;;;;;;8.82;45.68;100192.28;4445883;32;32945;-82
2022/02/25 08:38:03;;;;;;;10.43;4.60;;;;;;;9.02;45.92;100208.38;4474378;32;33950;-82
2022/02/25 08:40:31;;;;;;;15.48;6.07;;;;;;;8.87;45.25;100207.03;4470061;32;32387;-82
2022/02/25 08:42:59;;;;;;;11.05;5.10;;;;;;;8.87;44.21;100204.41;4461613;32;32805;-82
2022/02/25 08:45:28;;;;;;;8.20;4.53;;;;;;;8.86;45.16;100209.72;4462232;32;33063;-82
2022/02/25 08:47:55;;;;;;;14.87;4.85;;;;;;;8.60;46.02;100218.41;4450028;32;33247;-82
2022/02/25 08:50:23;;;;;;;10.82;4.90;;;;;;;8.61;46.21;100214.88;4457792;32;32589;-82
2022/02/25 08:52:53;;;;;;;15.55;5.40;;;;;;;9.07;44.84;100218.75;4470886;32;33433;-82
2022/02/25 08:55:21;;;;;;;11.50;5.20;;;;;;;9.26;44.98;100212.00;4469207;31;33073;-82
2022/02/25 08:57:49;;;;;;;7.82;3.92;;;;;;;9.10;46.22;100221.28;4458683;32;34188;-82
2022/02/25 09:00:20;;;;;;;10.43;5.45;;;;;;;9.42;44.92;100215.00;4477343;32;32441;-82
2022/02/25 09:02:48;;;;;;;10.18;3.97;;;;;;;9.79;44.60;100204.09;4471330;32;33512;-81
2022/02/25 09:05:17;;;;;;;9.60;4.80;;;;;;;9.82;44.80;100208.41;4455072;32;32558;-82
2022/02/25 09:07:45;;;;;;;8.80;3.80;;;;;;;9.99;44.15;100201.62;4452051;31;34124;-81
2022/02/25 09:10:13;;;;;;;7.78;3.60;;;;;;;9.70;45.82;100215.81;4444639;32;32993;-83
2022/02/25 09:12:46;;;;;;;8.07;3.90;;;;;;;10.09;44.45;100218.00;4455730;32;33297;-84
2022/02/25 09:15:17;;;;;;;6.28;3.15;;;;;;;10.54;42.87;100219.06;4462953;32;32356;-84
2022/02/25 09:17:45;;;;;;;5.45;2.80;;;;;;;10.41;42.93;100218.69;4457884;31;34497;-84
2022/02/25 09:20:13;;;;;;;4.75;2.12;;;;;;;10.44;42.25;100224.72;4445720;32;32888;-84
2022/02/25 09:22:41;;;;;;;4.87;2.08;;;;;;;10.61;42.49;100229.38;4459778;32;33835;-84
2022/02/25 09:25:09;;;;;;;5.82;2.10;;;;;;;10.61;42.02;100225.88;4470708;32;34682;-84
2022/02/25 09:27:37;;;;;;;6.62;2.40;;;;;;;10.73;41.29;100243.91;4465525;32;34233;-84
2022/02/25 09:30:07;;;;;;;8.00;3.12;;;;;;;10.25;42.24;100235.06;4465023;32;32788;-84
2022/02/25 09:32:35;;;;;;;7.93;2.28;;;;;;;10.40;42.29;100249.50;4471636;32;32927;-84
2022/02/25 09:35:04;;;;;;;3.35;2.17;;;;;;;10.64;41.41;100246.87;4470287;32;33214;-84
2022/02/25 09:37:35;;;;;;;4.53;2.60;;;;;;;10.27;43.09;100253.50;4460097;32;33140;-87
2022/02/25 09:40:08;;;;;;;5.40;2.45;;;;;;;10.51;42.13;100246.47;4466062;32;33070;-84
2022/02/25 09:42:38;;;;;;;4.15;2.53;;;;;;;10.44;42.21;100248.47;4459931;32;34389;-84
2022/02/25 09:45:08;;;;;;;8.32;2.47;;;;;;;10.51;41.98;100259.66;4473486;32;34015;-85
2022/02/25 09:47:36;;;;;;;5.50;2.47;;;;;;;10.61;41.78;100252.28;4463967;31;34192;-84
2022/02/25 09:50:07;;;;;;;6.95;1.87;;;;;;;10.64;41.87;100268.88;4460924;31;32266;-84
2022/02/25 09:52:37;;;;;;;5.40;2.47;;;;;;;10.29;43.56;100267.47;4466785;31;33963;-84
2022/02/25 09:55:19;;;;;;;5.07;3.12;;;;;;;10.60;42.26;100261.13;4449339;32;34432;-84
2022/02/25 09:57:47;;;;;;;8.83;3.03;;;;;;;10.72;42.23;100250.09;4467936;32;33639;-84
2022/02/25 10:00:16;;;;;;;6.60;2.40;;;;;;;10.89;42.26;100245.03;4461193;32;32252;-84
2022/02/25 10:02:47;;;;;;;3.67;2.10;;;;;;;10.66;42.49;100256.47;4461505;32;33621;-84
2022/02/25 10:05:18;;;;;;;8.52;2.35;;;;;;;11.10;41.56;100255.69;4479073;32;34873;-83
2022/02/25 10:07:47;;;;;;;5.37;2.70;;;;;;;11.06;41.53;100254.94;4459316;32;33114;-83
2022/02/25 10:10:16;;;;;;;5.15;2.47;;;;;;;11.08;41.91;100254.91;4458380;32;32290;-84
2022/02/25 10:12:45;;;;;;;3.87;2.55;;;;;;;10.72;42.42;100258.00;4459466;32;32849;-85
2022/02/25 10:15:14;;;;;;;4.07;2.67;;;;;;;10.65;42.83;100253.87;4473714;32;33881;-86
2022/02/25 10:17:42;;;;;;;3.67;2.28;;;;;;;10.66;42.48;100250.31;4469184;32;32732;-81
2022/02/25 10:20:10;;;;;;;7.90;2.75;;;;;;;10.74;42.38;100250.91;4450828;32;33252;-81
2022/02/25 10:22:58;;;;;;;8.68;2.50;;;;;;;10.90;42.31;100259.97;4485609;32;34620;-83
2022/02/25 10:25:33;;;;;;;2.20;1.83;;;;;;;11.42;41.10;100255.31;4458695;32;33225;-81
2022/02/25 10:28:01;;;;;;;4.07;2.08;;;;;;;11.35;41.09;100259.12;4472714;32;34289;-84
2022/02/25 10:30:31;;;;;;;3.62;2.70;;;;;;;11.55;40.59;100274.19;4454337;32;32303;-84
2022/02/25 10:33:00;;;;;;;7.57;2.22;;;;;;;11.21;41.50;100272.03;4460129;32;33580;-81
2022/02/25 10:35:40;;;;;;;5.87;2.33;;;;;;;11.31;41.41;100270.75;4447101;32;33322;-83
2022/02/25 10:38:15;;;;;;;2.60;1.92;;;;;;;11.36;41.30;100265.28;4473280;32;34550;-83
2022/02/25 10:40:48;;;;;;;3.70;2.08;;;;;;;11.21;41.35;100264.97;4457205;31;32116;-83
2022/02/25 10:43:16;;;;;;;5.90;2.62;;;;;;;11.28;41.45;100265.56;4466632;31;33407;-83
2022/02/25 10:45:46;;;;;;;8.30;3.75;;;;;;;11.69;40.99;100268.34;4473966;32;33342;-83
2022/02/25 10:48:16;;;;;;;3.97;2.00;;;;;;;11.99;40.16;100268.88;4460089;32;33435;-83
2022/02/25 10:50:49;;;;;;;4.82;1.85;;;;;;;11.73;39.71;100259.38;4451063;32;32386;-83
2022/02/25 10:53:32;;;;;;;3.20;1.70;;;;;;;11.91;39.22;100261.25;4472223;32;33541;-84
2022/02/25 10:56:11;;;;;;;3.03;1.85;;;;;;;12.05;40.50;100263.31;4465887;32;33613;-83
2022/02/25 10:58:47;;;;;;;3.40;1.50;;;;;;;12.40;38.19;100267.13;4464659;32;32946;-83
2022/02/25 11:01:16;;;;;;;5.87;1.42;;;;;;;12.43;38.48;100259.03;4459213;32;33219;-83
2022/02/25 11:04:08;;;;;;;3.22;1.50;;;;;;;12.51;36.39;100258.69;4472123;32;32673;-84
2022/02/25 11:06:36;;;;;;;2.03;1.10;;;;;;;12.49;36.24;100253.47;4478171;32;33880;-83
2022/02/25 11:09:05;;;;;;;3.12;1.42;;;;;;;12.54;36.72;100254.13;4468645;31;32842;-83
2022/02/25 11:11:34;;;;;;;2.08;1.20;;;;;;;12.84;36.10;100248.38;4458785;32;32905;-84
2022/02/25 11:14:06;;;;;;;1.90;1.12;;;;;;;12.88;35.78;100239.34;4445870;32;33104;-84
2022/02/25 11:16:36;;;;;;;1.80;1.08;;;;;;;13.18;34.78;100241.50;4459150;32;33901;-84
2022/02/25 11:19:24;;;;;;;1.45;1.08;;;;;;;13.28;33.76;100221.59;4463041;31;33838;-84
2022/02/25 11:21:53;;;;;;;5.32;0.90;;;;;;;12.86;33.76;100232.38;4477186;32;34027;-83
2022/02/25 11:24:22;;;;;;;0.90;0.80;;;;;;;12.34;34.87;100230.28;4458987;32;33383;-83
2022/02/25 11:27:00;;;;;;;2.40;1.30;;;;;;;11.86;35.92;100247.37;4469899;32;33908;-84
2022/02/25 11:29:29;;;;;;;1.58;1.15;;;;;;;11.90;37.11;100243.66;4470122;32;32960;-84
2022/02/25 11:31:59;;;;;;;5.00;1.42;;;;;;;11.92;36.49;100236.53;4459116;32;33184;-84
2022/02/25 11:34:28;;;;;;;1.05;0.90;;;;;;;11.91;36.38;100228.66;4459156;32;33706;-84
2022/02/25 11:36:55;;;;;;;1.60;0.95;;;;;;;11.89;36.83;100231.38;4445858;32;33175;-82
2022/02/25 11:39:25;;;;;;;1.95;0.95;;;;;;;12.07;36.28;100244.75;4475992;31;34257;-83
2022/02/25 11:41:57;;;;;;;1.48;1.00;;;;;;;11.81;37.97;100254.59;4464275;32;32472;-83
2022/02/25 11:44:25;;;;;;;1.87;1.00;;;;;;;11.93;37.24;100234.75;4476035;31;33612;-84
2022/02/25 11:46:55;;;;;;;2.05;0.95;;;;;;;11.91;36.82;100244.53;4466304;31;33662;-84